sensor_id;sensor_type;location;lat;lon;timestamp;temperature;humidity
1015;DHT22;8170;48.118;11.628;2023-03-20T00:00:52;9.30;99.90
1015;DHT22;8170;48.118;11.628;2023-03-20T00:01:56;9.30;99.90
1015;DHT22;8170;48.118;11.628;2023-03-20T00:03:00;9.30;99.90
1015;DHT22;8170;48.118;11.628;2023-03-20T00:04:03;9.30;99.90
1015;DHT22;8170;48.118;11.628;2023-03-20T00:05:15;9.40;99.90
1015;DHT22;8170;48.118;11.628;2023-03-20T00:06:21;9.40;99.90
1015;DHT22;8170;48.118;11.628;2023-03-20T00:07:24;9.40;99.90
1015;DHT22;8170;48.118;11.628;2023-03-20T00:08:28;9.40;99.90
1015;DHT22;8170;48.118;11.628;2023-03-20T00:09:33;9.40;99.90
1015;DHT22;8170;48.118;11.628;2023-03-20T00:10:37;9.40;99.90
1015;DHT22;8170;48.118;11.628;2023-03-20T00:11:46;9.40;99.90
1015;DHT22;8170;48.118;11.628;2023-03-20T00:12:49;9.40;99.90
1015;DHT22;8170;48.118;11.628;2023-03-20T00:13:55;9.30;99.90
1015;DHT22;8170;48.118;11.628;2023-03-20T00:14:59;9.40;99.90
1015;DHT22;8170;48.118;11.628;2023-03-20T00:16:04;9.40;99.90
1015;DHT22;8170;48.118;11.628;2023-03-20T00:17:09;9.40;99.90
1015;DHT22;8170;48.118;11.628;2023-03-20T00:18:14;9.40;99.90
1015;DHT22;8170;48.118;11.628;2023-03-20T00:19:20;9.40;99.90
1015;DHT22;8170;48.118;11.628;2023-03-20T00:20:25;9.40;99.90
1015;DHT22;8170;48.118;11.628;2023-03-20T00:21:27;9.40;99.90
1015;DHT22;8170;48.118;11.628;2023-03-20T00:22:31;9.40;99.90
1015;DHT22;8170;48.118;11.628;2023-03-20T00:23:34;9.40;99.90
1015;DHT22;8170;48.118;11.628;2023-03-20T00:24:37;9.40;99.90
1015;DHT22;8170;48.118;11.628;2023-03-20T00:25:42;9.40;99.90
1015;DHT22;8170;48.118;11.628;2023-03-20T00:26:46;9.40;99.90
1015;DHT22;8170;48.118;11.628;2023-03-20T00:27:50;9.40;99.90
1015;DHT22;8170;48.118;11.628;2023-03-20T00:28:54;9.40;99.90
1015;DHT22;8170;48.118;11.628;2023-03-20T00:29:57;9.30;99.90
1015;DHT22;8170;48.118;11.628;2023-03-20T00:30:59;9.40;99.90
1015;DHT22;8170;48.118;11.628;2023-03-20T00:32:07;9.40;99.90
1015;DHT22;8170;48.118;11.628;2023-03-20T00:33:10;9.40;99.90
1015;DHT22;8170;48.118;11.628;2023-03-20T00:34:16;9.30;99.90
1015;DHT22;8170;48.118;11.628;2023-03-20T00:35:23;9.30;99.90
1015;DHT22;8170;48.118;11.628;2023-03-20T00:36:27;9.30;99.90
1015;DHT22;8170;48.118;11.628;2023-03-20T00:37:29;9.30;99.90
1015;DHT22;8170;48.118;11.628;2023-03-20T00:38:32;9.30;99.90
1015;DHT22;8170;48.118;11.628;2023-03-20T00:39:35;9.30;99.90
1015;DHT22;8170;48.118;11.628;2023-03-20T00:40:38;9.30;99.90
1015;DHT22;8170;48.118;11.628;2023-03-20T00:41:42;9.30;99.90
1015;DHT22;8170;48.118;11.628;2023-03-20T00:42:50;9.30;99.90
1015;DHT22;8170;48.118;11.628;2023-03-20T00:43:58;9.30;99.90
1015;DHT22;8170;48.118;11.628;2023-03-20T00:45:03;9.20;99.90
1015;DHT22;8170;48.118;11.628;2023-03-20T00:46:07;9.20;99.90
1015;DHT22;8170;48.118;11.628;2023-03-20T00:47:17;9.20;99.90
1015;DHT22;8170;48.118;11.628;2023-03-20T00:48:20;9.20;99.90
1015;DHT22;8170;48.118;11.628;2023-03-20T00:49:25;9.20;99.90
1015;DHT22;8170;48.118;11.628;2023-03-20T00:50:30;9.20;99.90
1015;DHT22;8170;48.118;11.628;2023-03-20T00:51:34;9.30;99.90
1015;DHT22;8170;48.118;11.628;2023-03-20T00:52:37;9.20;99.90
1015;DHT22;8170;48.118;11.628;2023-03-20T00:53:40;9.20;99.90
1015;DHT22;8170;48.118;11.628;2023-03-20T00:54:43;9.20;99.90
1015;DHT22;8170;48.118;11.628;2023-03-20T00:55:46;9.30;99.90
1015;DHT22;8170;48.118;11.628;2023-03-20T00:56:54;9.30;99.90
1015;DHT22;8170;48.118;11.628;2023-03-20T00:58:00;9.30;99.90
1015;DHT22;8170;48.118;11.628;2023-03-20T00:59:04;9.30;99.90
1015;DHT22;8170;48.118;11.628;2023-03-20T01:01:42;9.30;99.90
1015;DHT22;8170;48.118;11.628;2023-03-20T01:02:46;9.30;99.90
1015;DHT22;8170;48.118;11.628;2023-03-20T01:03:50;9.30;99.90
1015;DHT22;8170;48.118;11.628;2023-03-20T01:04:52;9.30;99.90
1015;DHT22;8170;48.118;11.628;2023-03-20T01:05:55;9.30;99.90
1015;DHT22;8170;48.118;11.628;2023-03-20T01:06:58;9.30;99.90
1015;DHT22;8170;48.118;11.628;2023-03-20T01:08:01;9.30;99.90
1015;DHT22;8170;48.118;11.628;2023-03-20T01:09:03;9.30;99.90
1015;DHT22;8170;48.118;11.628;2023-03-20T01:10:09;9.30;99.90
1015;DHT22;8170;48.118;11.628;2023-03-20T01:11:12;9.30;99.90
1015;DHT22;8170;48.118;11.628;2023-03-20T01:12:16;9.30;99.90
1015;DHT22;8170;48.118;11.628;2023-03-20T01:13:20;9.30;99.90
1015;DHT22;8170;48.118;11.628;2023-03-20T01:14:25;9.20;99.90
1015;DHT22;8170;48.118;11.628;2023-03-20T01:15:31;9.30;99.90
1015;DHT22;8170;48.118;11.628;2023-03-20T01:16:35;9.20;99.90
1015;DHT22;8170;48.118;11.628;2023-03-20T01:17:37;9.20;99.90
1015;DHT22;8170;48.118;11.628;2023-03-20T01:18:40;9.10;99.90
1015;DHT22;8170;48.118;11.628;2023-03-20T01:19:43;9.10;99.90
1015;DHT22;8170;48.118;11.628;2023-03-20T01:20:47;9.10;99.90
1015;DHT22;8170;48.118;11.628;2023-03-20T01:21:54;9.10;99.90
1015;DHT22;8170;48.118;11.628;2023-03-20T01:23:00;9.10;99.90
1015;DHT22;8170;48.118;11.628;2023-03-20T01:24:03;9.10;99.90
1015;DHT22;8170;48.118;11.628;2023-03-20T01:25:07;9.00;99.90
1015;DHT22;8170;48.118;11.628;2023-03-20T01:26:21;9.10;99.90
1015;DHT22;8170;48.118;11.628;2023-03-20T01:27:25;9.10;99.90
1015;DHT22;8170;48.118;11.628;2023-03-20T01:28:28;9.10;99.90
1015;DHT22;8170;48.118;11.628;2023-03-20T01:29:33;9.10;99.90
1015;DHT22;8170;48.118;11.628;2023-03-20T01:30:35;9.10;99.90
1015;DHT22;8170;48.118;11.628;2023-03-20T01:31:38;9.10;99.90
1015;DHT22;8170;48.118;11.628;2023-03-20T01:32:41;9.10;99.90
1015;DHT22;8170;48.118;11.628;2023-03-20T01:33:47;9.10;99.90
1015;DHT22;8170;48.118;11.628;2023-03-20T01:34:50;9.10;99.90
1015;DHT22;8170;48.118;11.628;2023-03-20T01:35:54;9.00;99.90
1015;DHT22;8170;48.118;11.628;2023-03-20T01:36:59;9.00;99.90
1015;DHT22;8170;48.118;11.628;2023-03-20T01:38:04;9.00;99.90
1015;DHT22;8170;48.118;11.628;2023-03-20T01:39:08;9.00;99.90
1015;DHT22;8170;48.118;11.628;2023-03-20T01:40:18;9.10;99.90
1015;DHT22;8170;48.118;11.628;2023-03-20T01:41:25;9.10;99.90
1015;DHT22;8170;48.118;11.628;2023-03-20T01:42:29;9.10;99.90
1015;DHT22;8170;48.118;11.628;2023-03-20T01:43:32;9.10;99.90
1015;DHT22;8170;48.118;11.628;2023-03-20T01:44:37;9.10;99.90
1015;DHT22;8170;48.118;11.628;2023-03-20T01:45:46;9.10;99.90
1015;DHT22;8170;48.118;11.628;2023-03-20T01:46:52;9.00;99.90
1015;DHT22;8170;48.118;11.628;2023-03-20T01:47:55;9.00;99.90
1015;DHT22;8170;48.118;11.628;2023-03-20T01:49:07;9.00;99.90
1015;DHT22;8170;48.118;11.628;2023-03-20T01:50:25;9.00;99.90
1015;DHT22;8170;48.118;11.628;2023-03-20T01:51:34;9.00;99.90
1015;DHT22;8170;48.118;11.628;2023-03-20T01:52:42;9.10;99.90
1015;DHT22;8170;48.118;11.628;2023-03-20T01:53:47;9.00;99.90
1015;DHT22;8170;48.118;11.628;2023-03-20T01:54:51;9.00;99.90
1015;DHT22;8170;48.118;11.628;2023-03-20T01:55:56;9.10;99.90
1015;DHT22;8170;48.118;11.628;2023-03-20T01:57:10;9.00;99.90
1015;DHT22;8170;48.118;11.628;2023-03-20T01:58:19;9.10;99.90
1015;DHT22;8170;48.118;11.628;2023-03-20T01:59:25;9.00;99.90
1015;DHT22;8170;48.118;11.628;2023-03-20T02:00:30;9.10;99.90
1015;DHT22;8170;48.118;11.628;2023-03-20T02:01:35;9.00;99.90
1015;DHT22;8170;48.118;11.628;2023-03-20T02:02:38;9.00;99.90
1015;DHT22;8170;48.118;11.628;2023-03-20T02:03:46;9.00;99.90
1015;DHT22;8170;48.118;11.628;2023-03-20T02:05:02;9.00;99.90
1015;DHT22;8170;48.118;11.628;2023-03-20T02:06:05;9.00;99.90
1015;DHT22;8170;48.118;11.628;2023-03-20T02:07:53;9.00;99.90
1015;DHT22;8170;48.118;11.628;2023-03-20T02:08:59;9.00;99.90
1015;DHT22;8170;48.118;11.628;2023-03-20T02:10:10;9.00;99.90
1015;DHT22;8170;48.118;11.628;2023-03-20T02:11:24;9.10;99.90
1015;DHT22;8170;48.118;11.628;2023-03-20T02:12:27;9.00;99.90
1015;DHT22;8170;48.118;11.628;2023-03-20T02:13:32;9.00;99.90
1015;DHT22;8170;48.118;11.628;2023-03-20T02:14:36;9.00;99.90
1015;DHT22;8170;48.118;11.628;2023-03-20T02:16:01;9.10;99.90
1015;DHT22;8170;48.118;11.628;2023-03-20T02:17:23;9.10;99.90
1015;DHT22;8170;48.118;11.628;2023-03-20T02:18:33;9.10;99.90
1015;DHT22;8170;48.118;11.628;2023-03-20T02:19:46;9.10;99.90
1015;DHT22;8170;48.118;11.628;2023-03-20T02:26:48;9.20;99.90
1015;DHT22;8170;48.118;11.628;2023-03-20T02:28:11;9.20;99.90
1015;DHT22;8170;48.118;11.628;2023-03-20T02:29:47;9.20;99.90
1015;DHT22;8170;48.118;11.628;2023-03-20T02:31:10;9.10;99.90
1015;DHT22;8170;48.118;11.628;2023-03-20T02:32:43;9.20;99.90
1015;DHT22;8170;48.118;11.628;2023-03-20T02:34:11;9.20;99.90
1015;DHT22;8170;48.118;11.628;2023-03-20T02:35:53;9.20;99.90
1015;DHT22;8170;48.118;11.628;2023-03-20T02:39:15;9.20;99.90
1015;DHT22;8170;48.118;11.628;2023-03-20T02:40:26;9.20;99.90
1015;DHT22;8170;48.118;11.628;2023-03-20T02:41:38;9.20;99.90
1015;DHT22;8170;48.118;11.628;2023-03-20T02:42:47;9.20;99.90
1015;DHT22;8170;48.118;11.628;2023-03-20T02:43:59;9.20;99.90
1015;DHT22;8170;48.118;11.628;2023-03-20T02:45:11;9.20;99.90
1015;DHT22;8170;48.118;11.628;2023-03-20T02:46:24;9.20;99.90
1015;DHT22;8170;48.118;11.628;2023-03-20T02:47:30;9.10;99.90
1015;DHT22;8170;48.118;11.628;2023-03-20T02:48:46;9.10;99.90
1015;DHT22;8170;48.118;11.628;2023-03-20T02:50:02;9.10;99.90
1015;DHT22;8170;48.118;11.628;2023-03-20T02:51:15;9.10;99.90
1015;DHT22;8170;48.118;11.628;2023-03-20T02:52:27;9.10;99.90
1015;DHT22;8170;48.118;11.628;2023-03-20T02:53:38;9.10;99.90
1015;DHT22;8170;48.118;11.628;2023-03-20T02:54:52;9.10;99.90
1015;DHT22;8170;48.118;11.628;2023-03-20T02:56:04;9.10;99.90
1015;DHT22;8170;48.118;11.628;2023-03-20T02:57:10;9.10;99.90
1015;DHT22;8170;48.118;11.628;2023-03-20T02:58:21;9.10;99.90
1015;DHT22;8170;48.118;11.628;2023-03-20T02:59:29;9.10;99.90
1015;DHT22;8170;48.118;11.628;2023-03-20T03:00:37;9.10;99.90
1015;DHT22;8170;48.118;11.628;2023-03-20T03:01:44;9.10;99.90
1015;DHT22;8170;48.118;11.628;2023-03-20T03:02:51;9.10;99.90
1015;DHT22;8170;48.118;11.628;2023-03-20T03:04:01;9.10;99.90
1015;DHT22;8170;48.118;11.628;2023-03-20T03:05:11;9.10;99.90
1015;DHT22;8170;48.118;11.628;2023-03-20T03:06:17;9.10;99.90
1015;DHT22;8170;48.118;11.628;2023-03-20T03:07:27;9.00;99.90
1015;DHT22;8170;48.118;11.628;2023-03-20T03:08:35;9.00;99.90
1015;DHT22;8170;48.118;11.628;2023-03-20T03:09:41;9.00;99.90
1015;DHT22;8170;48.118;11.628;2023-03-20T03:10:48;9.00;99.90
1015;DHT22;8170;48.118;11.628;2023-03-20T03:11:56;9.00;99.90
1015;DHT22;8170;48.118;11.628;2023-03-20T03:13:00;9.00;99.90
1015;DHT22;8170;48.118;11.628;2023-03-20T03:14:05;9.00;99.90
1015;DHT22;8170;48.118;11.628;2023-03-20T03:15:13;9.00;99.90
1015;DHT22;8170;48.118;11.628;2023-03-20T03:16:21;9.00;99.90
1015;DHT22;8170;48.118;11.628;2023-03-20T03:17:27;8.90;99.90
1015;DHT22;8170;48.118;11.628;2023-03-20T03:18:34;8.90;99.90
1015;DHT22;8170;48.118;11.628;2023-03-20T03:19:38;8.90;99.90
1015;DHT22;8170;48.118;11.628;2023-03-20T03:20:44;8.90;99.90
1015;DHT22;8170;48.118;11.628;2023-03-20T03:21:49;8.90;99.90
1015;DHT22;8170;48.118;11.628;2023-03-20T03:22:54;8.90;99.90
1015;DHT22;8170;48.118;11.628;2023-03-20T03:23:57;8.90;99.90
1015;DHT22;8170;48.118;11.628;2023-03-20T03:25:00;8.90;99.90
1015;DHT22;8170;48.118;11.628;2023-03-20T03:26:05;8.90;99.90
1015;DHT22;8170;48.118;11.628;2023-03-20T03:27:14;8.90;99.90
1015;DHT22;8170;48.118;11.628;2023-03-20T03:28:25;8.90;99.90
1015;DHT22;8170;48.118;11.628;2023-03-20T03:29:33;8.90;99.90
1015;DHT22;8170;48.118;11.628;2023-03-20T03:30:39;8.90;99.90
1015;DHT22;8170;48.118;11.628;2023-03-20T03:31:42;8.90;99.90
1015;DHT22;8170;48.118;11.628;2023-03-20T03:32:49;8.90;99.90
1015;DHT22;8170;48.118;11.628;2023-03-20T03:33:55;8.90;99.90
1015;DHT22;8170;48.118;11.628;2023-03-20T03:34:58;8.90;99.90
1015;DHT22;8170;48.118;11.628;2023-03-20T03:36:09;8.90;99.90
1015;DHT22;8170;48.118;11.628;2023-03-20T03:37:22;8.80;99.90
1015;DHT22;8170;48.118;11.628;2023-03-20T03:38:30;8.80;99.90
1015;DHT22;8170;48.118;11.628;2023-03-20T03:39:38;8.80;99.90
1015;DHT22;8170;48.118;11.628;2023-03-20T03:40:45;8.80;99.90
1015;DHT22;8170;48.118;11.628;2023-03-20T03:41:56;8.80;99.90
1015;DHT22;8170;48.118;11.628;2023-03-20T03:43:06;8.80;99.90
1015;DHT22;8170;48.118;11.628;2023-03-20T03:44:12;8.80;99.90
1015;DHT22;8170;48.118;11.628;2023-03-20T03:45:22;8.90;99.90
1015;DHT22;8170;48.118;11.628;2023-03-20T03:46:36;8.90;99.90
1015;DHT22;8170;48.118;11.628;2023-03-20T03:47:43;8.90;99.90
1015;DHT22;8170;48.118;11.628;2023-03-20T03:48:50;8.90;99.90
1015;DHT22;8170;48.118;11.628;2023-03-20T03:49:57;8.80;99.90
1015;DHT22;8170;48.118;11.628;2023-03-20T03:51:05;8.80;99.90
1015;DHT22;8170;48.118;11.628;2023-03-20T03:52:19;8.90;99.90
1015;DHT22;8170;48.118;11.628;2023-03-20T03:53:26;8.80;99.90
1015;DHT22;8170;48.118;11.628;2023-03-20T03:54:36;8.80;99.90
1015;DHT22;8170;48.118;11.628;2023-03-20T03:56:03;8.90;99.90
1015;DHT22;8170;48.118;11.628;2023-03-20T03:57:09;8.90;99.90
1015;DHT22;8170;48.118;11.628;2023-03-20T03:58:17;8.90;99.90
1015;DHT22;8170;48.118;11.628;2023-03-20T03:59:26;8.90;99.90
1015;DHT22;8170;48.118;11.628;2023-03-20T04:00:31;8.90;99.90
1015;DHT22;8170;48.118;11.628;2023-03-20T04:01:37;8.80;99.90
1015;DHT22;8170;48.118;11.628;2023-03-20T04:02:46;8.80;99.90
1015;DHT22;8170;48.118;11.628;2023-03-20T04:03:54;8.90;99.90
1015;DHT22;8170;48.118;11.628;2023-03-20T04:04:58;8.90;99.90
1015;DHT22;8170;48.118;11.628;2023-03-20T04:06:05;8.90;99.90
1015;DHT22;8170;48.118;11.628;2023-03-20T04:07:07;8.80;99.90
1015;DHT22;8170;48.118;11.628;2023-03-20T04:08:11;8.80;99.90
1015;DHT22;8170;48.118;11.628;2023-03-20T04:09:15;8.80;99.90
1015;DHT22;8170;48.118;11.628;2023-03-20T04:10:20;8.80;99.90
1015;DHT22;8170;48.118;11.628;2023-03-20T04:11:23;8.80;99.90
1015;DHT22;8170;48.118;11.628;2023-03-20T04:12:34;8.80;99.90
1015;DHT22;8170;48.118;11.628;2023-03-20T04:13:36;8.80;99.90
1015;DHT22;8170;48.118;11.628;2023-03-20T04:14:39;8.80;99.90
1015;DHT22;8170;48.118;11.628;2023-03-20T04:15:42;8.80;99.90
1015;DHT22;8170;48.118;11.628;2023-03-20T04:16:45;8.70;99.90
1015;DHT22;8170;48.118;11.628;2023-03-20T04:17:47;8.80;99.90
1015;DHT22;8170;48.118;11.628;2023-03-20T04:18:52;8.70;99.90
1015;DHT22;8170;48.118;11.628;2023-03-20T04:19:54;8.80;99.90
1015;DHT22;8170;48.118;11.628;2023-03-20T04:20:58;8.80;99.90
1015;DHT22;8170;48.118;11.628;2023-03-20T04:22:01;8.70;99.90
1015;DHT22;8170;48.118;11.628;2023-03-20T04:23:05;8.70;99.90
1015;DHT22;8170;48.118;11.628;2023-03-20T04:24:07;8.80;99.90
1015;DHT22;8170;48.118;11.628;2023-03-20T04:25:15;8.80;99.90
1015;DHT22;8170;48.118;11.628;2023-03-20T04:26:19;8.80;99.90
1015;DHT22;8170;48.118;11.628;2023-03-20T04:27:23;8.70;99.90
1015;DHT22;8170;48.118;11.628;2023-03-20T04:28:26;8.80;99.90
1015;DHT22;8170;48.118;11.628;2023-03-20T04:29:51;8.80;99.90
1015;DHT22;8170;48.118;11.628;2023-03-20T04:31:11;8.80;99.90
1015;DHT22;8170;48.118;11.628;2023-03-20T04:32:26;8.80;99.90
1015;DHT22;8170;48.118;11.628;2023-03-20T04:33:35;8.80;99.90
1015;DHT22;8170;48.118;11.628;2023-03-20T04:34:57;8.90;99.90
1015;DHT22;8170;48.118;11.628;2023-03-20T04:36:09;8.80;99.90
1015;DHT22;8170;48.118;11.628;2023-03-20T04:37:13;8.80;99.90
1015;DHT22;8170;48.118;11.628;2023-03-20T04:38:23;8.80;99.90
1015;DHT22;8170;48.118;11.628;2023-03-20T04:39:27;8.90;99.90
1015;DHT22;8170;48.118;11.628;2023-03-20T04:40:30;8.80;99.90
1015;DHT22;8170;48.118;11.628;2023-03-20T04:41:34;8.80;99.90
1015;DHT22;8170;48.118;11.628;2023-03-20T04:42:37;8.80;99.90
1015;DHT22;8170;48.118;11.628;2023-03-20T04:43:40;8.80;99.90
1015;DHT22;8170;48.118;11.628;2023-03-20T04:44:43;8.80;99.90
1015;DHT22;8170;48.118;11.628;2023-03-20T04:45:46;8.80;99.90
1015;DHT22;8170;48.118;11.628;2023-03-20T04:46:49;8.80;99.90
1015;DHT22;8170;48.118;11.628;2023-03-20T04:47:51;8.80;99.90
1015;DHT22;8170;48.118;11.628;2023-03-20T04:48:56;8.80;99.90
1015;DHT22;8170;48.118;11.628;2023-03-20T04:50:20;8.80;99.90
1015;DHT22;8170;48.118;11.628;2023-03-20T04:51:25;8.80;99.90
1015;DHT22;8170;48.118;11.628;2023-03-20T04:52:27;8.90;99.90
1015;DHT22;8170;48.118;11.628;2023-03-20T04:53:30;8.90;99.90
1015;DHT22;8170;48.118;11.628;2023-03-20T04:54:33;8.90;99.90
1015;DHT22;8170;48.118;11.628;2023-03-20T04:55:36;8.90;99.90
1015;DHT22;8170;48.118;11.628;2023-03-20T04:56:40;8.80;99.90
1015;DHT22;8170;48.118;11.628;2023-03-20T04:57:50;8.80;99.90
1015;DHT22;8170;48.118;11.628;2023-03-20T04:58:52;8.80;99.90
1015;DHT22;8170;48.118;11.628;2023-03-20T04:59:56;8.80;99.90
1015;DHT22;8170;48.118;11.628;2023-03-20T05:00:58;8.80;99.90
1015;DHT22;8170;48.118;11.628;2023-03-20T05:02:01;8.80;99.90
1015;DHT22;8170;48.118;11.628;2023-03-20T05:03:04;8.80;99.90
1015;DHT22;8170;48.118;11.628;2023-03-20T05:04:07;8.80;99.90
1015;DHT22;8170;48.118;11.628;2023-03-20T05:05:10;8.80;99.90
1015;DHT22;8170;48.118;11.628;2023-03-20T05:06:13;8.80;99.90
1015;DHT22;8170;48.118;11.628;2023-03-20T05:07:17;8.90;99.90
1015;DHT22;8170;48.118;11.628;2023-03-20T05:08:34;8.80;99.90
1015;DHT22;8170;48.118;11.628;2023-03-20T05:09:39;8.80;99.90
1015;DHT22;8170;48.118;11.628;2023-03-20T05:10:42;8.80;99.90
1015;DHT22;8170;48.118;11.628;2023-03-20T05:12:13;8.80;99.90
1015;DHT22;8170;48.118;11.628;2023-03-20T05:13:34;8.80;99.90
1015;DHT22;8170;48.118;11.628;2023-03-20T05:14:56;8.80;99.90
1015;DHT22;8170;48.118;11.628;2023-03-20T05:16:06;8.80;99.90
1015;DHT22;8170;48.118;11.628;2023-03-20T05:17:13;8.80;99.90
1015;DHT22;8170;48.118;11.628;2023-03-20T05:18:46;8.80;99.90
1015;DHT22;8170;48.118;11.628;2023-03-20T05:20:10;8.70;99.90
1015;DHT22;8170;48.118;11.628;2023-03-20T05:21:44;8.70;99.90
1015;DHT22;8170;48.118;11.628;2023-03-20T05:23:13;8.70;99.90
1015;DHT22;8170;48.118;11.628;2023-03-20T05:24:33;8.70;99.90
1015;DHT22;8170;48.118;11.628;2023-03-20T05:25:55;8.80;99.90
1015;DHT22;8170;48.118;11.628;2023-03-20T05:27:07;8.80;99.90
1015;DHT22;8170;48.118;11.628;2023-03-20T05:28:40;8.80;99.90
1015;DHT22;8170;48.118;11.628;2023-03-20T05:30:11;8.70;99.90
1015;DHT22;8170;48.118;11.628;2023-03-20T05:31:32;8.60;99.90
1015;DHT22;8170;48.118;11.628;2023-03-20T05:32:35;8.60;99.90
1015;DHT22;8170;48.118;11.628;2023-03-20T05:33:56;8.60;99.90
1015;DHT22;8170;48.118;11.628;2023-03-20T05:35:15;8.70;99.90
1015;DHT22;8170;48.118;11.628;2023-03-20T05:36:22;8.70;99.90
1015;DHT22;8170;48.118;11.628;2023-03-20T05:37:51;8.70;99.90
1015;DHT22;8170;48.118;11.628;2023-03-20T05:39:06;8.80;99.90
1015;DHT22;8170;48.118;11.628;2023-03-20T05:40:28;8.70;99.90
1015;DHT22;8170;48.118;11.628;2023-03-20T05:41:53;8.80;99.90
1015;DHT22;8170;48.118;11.628;2023-03-20T05:43:14;8.80;99.90
1015;DHT22;8170;48.118;11.628;2023-03-20T05:44:28;8.80;99.90
1015;DHT22;8170;48.118;11.628;2023-03-20T05:46:06;8.80;99.90
1015;DHT22;8170;48.118;11.628;2023-03-20T05:47:27;8.80;99.90
1015;DHT22;8170;48.118;11.628;2023-03-20T05:49:00;8.70;99.90
1015;DHT22;8170;48.118;11.628;2023-03-20T05:50:26;8.70;99.90
1015;DHT22;8170;48.118;11.628;2023-03-20T05:51:49;8.60;99.90
1015;DHT22;8170;48.118;11.628;2023-03-20T05:53:10;8.70;99.90
1015;DHT22;8170;48.118;11.628;2023-03-20T05:54:20;8.70;99.90
1015;DHT22;8170;48.118;11.628;2023-03-20T05:55:39;8.70;99.90
1015;DHT22;8170;48.118;11.628;2023-03-20T05:57:05;8.60;99.90
1015;DHT22;8170;48.118;11.628;2023-03-20T05:58:29;8.70;99.90
1015;DHT22;8170;48.118;11.628;2023-03-20T05:59:52;8.60;99.90
1015;DHT22;8170;48.118;11.628;2023-03-20T06:01:13;8.60;99.90
1015;DHT22;8170;48.118;11.628;2023-03-20T06:02:35;8.60;99.90
1015;DHT22;8170;48.118;11.628;2023-03-20T06:03:52;8.60;99.90
1015;DHT22;8170;48.118;11.628;2023-03-20T06:05:13;8.60;99.90
1015;DHT22;8170;48.118;11.628;2023-03-20T06:06:21;8.60;99.90
1015;DHT22;8170;48.118;11.628;2023-03-20T06:07:25;8.60;99.90
1015;DHT22;8170;48.118;11.628;2023-03-20T06:08:35;8.60;99.90
1015;DHT22;8170;48.118;11.628;2023-03-20T06:09:37;8.70;99.90
1015;DHT22;8170;48.118;11.628;2023-03-20T06:10:45;8.70;99.90
1015;DHT22;8170;48.118;11.628;2023-03-20T06:11:47;8.70;99.90
1015;DHT22;8170;48.118;11.628;2023-03-20T06:12:52;8.70;99.90
1015;DHT22;8170;48.118;11.628;2023-03-20T06:13:58;8.70;99.90
1015;DHT22;8170;48.118;11.628;2023-03-20T06:15:12;8.70;99.90
1015;DHT22;8170;48.118;11.628;2023-03-20T06:16:20;8.70;99.90
1015;DHT22;8170;48.118;11.628;2023-03-20T06:17:24;8.60;99.90
1015;DHT22;8170;48.118;11.628;2023-03-20T06:18:33;8.50;99.90
1015;DHT22;8170;48.118;11.628;2023-03-20T06:19:35;8.60;99.90
1015;DHT22;8170;48.118;11.628;2023-03-20T06:20:40;8.60;99.90
1015;DHT22;8170;48.118;11.628;2023-03-20T06:21:42;8.70;99.90
1015;DHT22;8170;48.118;11.628;2023-03-20T06:22:49;8.70;99.90
1015;DHT22;8170;48.118;11.628;2023-03-20T06:23:52;8.70;99.90
1015;DHT22;8170;48.118;11.628;2023-03-20T06:24:57;8.70;99.90
1015;DHT22;8170;48.118;11.628;2023-03-20T06:26:09;8.70;99.90
1015;DHT22;8170;48.118;11.628;2023-03-20T06:27:24;8.70;99.90
1015;DHT22;8170;48.118;11.628;2023-03-20T06:28:28;8.70;99.90
1015;DHT22;8170;48.118;11.628;2023-03-20T06:29:38;8.70;99.90
1015;DHT22;8170;48.118;11.628;2023-03-20T06:30:56;8.70;99.90
1015;DHT22;8170;48.118;11.628;2023-03-20T06:31:59;8.70;99.90
1015;DHT22;8170;48.118;11.628;2023-03-20T06:33:05;8.70;99.90
1015;DHT22;8170;48.118;11.628;2023-03-20T06:34:18;8.70;99.90
1015;DHT22;8170;48.118;11.628;2023-03-20T06:35:22;8.70;99.90
1015;DHT22;8170;48.118;11.628;2023-03-20T06:36:25;8.60;99.90
1015;DHT22;8170;48.118;11.628;2023-03-20T06:37:34;8.60;99.90
1015;DHT22;8170;48.118;11.628;2023-03-20T06:38:43;8.70;99.90
1015;DHT22;8170;48.118;11.628;2023-03-20T06:39:49;8.70;99.90
1015;DHT22;8170;48.118;11.628;2023-03-20T06:40:52;8.70;99.90
1015;DHT22;8170;48.118;11.628;2023-03-20T06:41:56;8.70;99.90
1015;DHT22;8170;48.118;11.628;2023-03-20T06:43:00;8.70;99.90
1015;DHT22;8170;48.118;11.628;2023-03-20T06:44:11;8.70;99.90
1015;DHT22;8170;48.118;11.628;2023-03-20T06:45:33;8.70;99.90
1015;DHT22;8170;48.118;11.628;2023-03-20T06:46:41;8.80;99.90
1015;DHT22;8170;48.118;11.628;2023-03-20T06:47:44;9.10;99.90
1015;DHT22;8170;48.118;11.628;2023-03-20T06:48:48;9.30;99.90
1015;DHT22;8170;48.118;11.628;2023-03-20T06:49:50;9.30;99.90
1015;DHT22;8170;48.118;11.628;2023-03-20T06:50:55;9.50;99.90
1015;DHT22;8170;48.118;11.628;2023-03-20T06:52:04;9.50;99.90
1015;DHT22;8170;48.118;11.628;2023-03-20T06:53:07;9.60;99.90
1015;DHT22;8170;48.118;11.628;2023-03-20T06:54:15;9.80;99.90
1015;DHT22;8170;48.118;11.628;2023-03-20T06:55:17;9.80;99.90
1015;DHT22;8170;48.118;11.628;2023-03-20T06:56:21;9.60;99.90
1015;DHT22;8170;48.118;11.628;2023-03-20T06:57:23;9.70;99.90
1015;DHT22;8170;48.118;11.628;2023-03-20T06:58:28;9.80;99.90
1015;DHT22;8170;48.118;11.628;2023-03-20T06:59:30;9.70;99.90
1015;DHT22;8170;48.118;11.628;2023-03-20T07:00:35;9.90;99.90
1015;DHT22;8170;48.118;11.628;2023-03-20T07:01:41;9.80;99.90
1015;DHT22;8170;48.118;11.628;2023-03-20T07:02:44;9.70;99.90
1015;DHT22;8170;48.118;11.628;2023-03-20T07:03:49;9.50;99.90
1015;DHT22;8170;48.118;11.628;2023-03-20T07:04:57;9.70;99.90
1015;DHT22;8170;48.118;11.628;2023-03-20T07:06:01;9.80;99.90
1015;DHT22;8170;48.118;11.628;2023-03-20T07:07:04;9.80;99.90
1015;DHT22;8170;48.118;11.628;2023-03-20T07:08:09;9.70;99.90
1015;DHT22;8170;48.118;11.628;2023-03-20T07:09:12;9.60;99.90
1015;DHT22;8170;48.118;11.628;2023-03-20T07:10:14;9.80;99.90
1015;DHT22;8170;48.118;11.628;2023-03-20T07:11:23;9.60;99.90
1015;DHT22;8170;48.118;11.628;2023-03-20T07:12:28;9.70;99.90
1015;DHT22;8170;48.118;11.628;2023-03-20T07:13:33;9.70;99.90
1015;DHT22;8170;48.118;11.628;2023-03-20T07:14:46;9.70;99.90
1015;DHT22;8170;48.118;11.628;2023-03-20T07:15:52;9.70;99.90
1015;DHT22;8170;48.118;11.628;2023-03-20T07:17:11;9.70;99.90
1015;DHT22;8170;48.118;11.628;2023-03-20T07:18:15;9.70;99.90
1015;DHT22;8170;48.118;11.628;2023-03-20T07:19:18;9.70;99.90
1015;DHT22;8170;48.118;11.628;2023-03-20T07:20:24;9.70;99.90
1015;DHT22;8170;48.118;11.628;2023-03-20T07:21:27;9.70;99.90
1015;DHT22;8170;48.118;11.628;2023-03-20T07:22:31;9.60;99.90
1015;DHT22;8170;48.118;11.628;2023-03-20T07:23:56;9.60;99.90
1015;DHT22;8170;48.118;11.628;2023-03-20T07:25:00;9.60;99.90
1015;DHT22;8170;48.118;11.628;2023-03-20T07:26:04;9.70;99.90
1015;DHT22;8170;48.118;11.628;2023-03-20T07:27:08;9.70;99.90
1015;DHT22;8170;48.118;11.628;2023-03-20T07:28:11;9.80;99.90
1015;DHT22;8170;48.118;11.628;2023-03-20T07:29:17;9.70;99.90
1015;DHT22;8170;48.118;11.628;2023-03-20T07:30:21;9.70;99.90
1015;DHT22;8170;48.118;11.628;2023-03-20T07:31:26;9.70;99.90
1015;DHT22;8170;48.118;11.628;2023-03-20T07:32:45;9.80;99.90
1015;DHT22;8170;48.118;11.628;2023-03-20T07:33:49;9.90;99.90
1015;DHT22;8170;48.118;11.628;2023-03-20T07:34:51;9.90;99.90
1015;DHT22;8170;48.118;11.628;2023-03-20T07:35:55;9.90;99.90
1015;DHT22;8170;48.118;11.628;2023-03-20T07:36:57;9.80;99.90